地図

経路データ

SID SEASON NUMBER BASIN SUBBASIN NAME ISO_TIME NATURE LAT LON WMO_WIND WMO_PRES WMO_AGENCY TRACK_TYPE DIST2LAND LANDFALL IFLAG USA_AGENCY USA_ATCF_ID USA_LAT USA_LON USA_RECORD USA_STATUS USA_WIND USA_PRES USA_SSHS USA_R34_NE USA_R34_SE USA_R34_SW USA_R34_NW USA_R50_NE USA_R50_SE USA_R50_SW USA_R50_NW USA_R64_NE USA_R64_SE USA_R64_SW USA_R64_NW USA_POCI USA_ROCI USA_RMW USA_EYE TOKYO_LAT TOKYO_LON TOKYO_GRADE TOKYO_WIND TOKYO_PRES TOKYO_R50_DIR TOKYO_R50_LONG TOKYO_R50_SHORT TOKYO_R30_DIR TOKYO_R30_LONG TOKYO_R30_SHORT TOKYO_LAND CMA_LAT CMA_LON CMA_CAT CMA_WIND CMA_PRES HKO_LAT HKO_LON HKO_CAT HKO_WIND HKO_PRES NEWDELHI_LAT NEWDELHI_LON NEWDELHI_GRADE NEWDELHI_WIND NEWDELHI_PRES NEWDELHI_CI NEWDELHI_DP NEWDELHI_POCI REUNION_LAT REUNION_LON REUNION_TYPE REUNION_WIND REUNION_PRES REUNION_TNUM REUNION_CI REUNION_RMW REUNION_R34_NE REUNION_R34_SE REUNION_R34_SW REUNION_R34_NW REUNION_R50_NE REUNION_R50_SE REUNION_R50_SW REUNION_R50_NW REUNION_R64_NE REUNION_R64_SE REUNION_R64_SW REUNION_R64_NW BOM_LAT BOM_LON BOM_TYPE BOM_WIND BOM_PRES BOM_TNUM BOM_CI BOM_RMW BOM_R34_NE BOM_R34_SE BOM_R34_SW BOM_R34_NW BOM_R50_NE BOM_R50_SE BOM_R50_SW BOM_R50_NW BOM_R64_NE BOM_R64_SE BOM_R64_SW BOM_R64_NW BOM_ROCI BOM_POCI BOM_EYE BOM_POS_METHOD BOM_PRES_METHOD NADI_LAT NADI_LON NADI_CAT NADI_WIND NADI_PRES WELLINGTON_LAT WELLINGTON_LON WELLINGTON_WIND WELLINGTON_PRES DS824_LAT DS824_LON DS824_STAGE DS824_WIND DS824_PRES TD9636_LAT TD9636_LON TD9636_STAGE TD9636_WIND TD9636_PRES TD9635_LAT TD9635_LON TD9635_WIND TD9635_PRES TD9635_ROCI NEUMANN_LAT NEUMANN_LON NEUMANN_CLASS NEUMANN_WIND NEUMANN_PRES MLC_LAT MLC_LON MLC_CLASS MLC_WIND MLC_PRES USA_GUST BOM_GUST BOM_GUST_PER REUNION_GUST REUNION_GUST_PER USA_SEAHGT USA_SEARAD_NE USA_SEARAD_SE USA_SEARAD_SW USA_SEARAD_NW STORM_SPEED STORM_DIR
1888347N10087 1888 66 NI BB NOT_NAMED 1888-12-12 00:00:00 TS 9.70000 86.5000 main 568 558 _________O____ -1 9.70000 86.5000 TC 34 3 267
1888347N10087 1888 66 NI BB NOT_NAMED 1888-12-12 03:00:00 TS 9.69334 86.3683 main 558 538 _________PO___ -1 9.69001 86.3025 TC 36 9.70000 86.5000 2 3 272
1888347N10087 1888 66 NI BB NOT_NAMED 1888-12-12 06:00:00 TS 9.71013 86.1669 main 538 518 _________OP___ -1 9.70000 86.1000 TC 39 9.72532 86.2673 2 4 277
1888347N10087 1888 66 NI BB NOT_NAMED 1888-12-12 09:00:00 TS 9.74590 85.9590 main 518 503 _________PP___ -1 9.74250 85.8925 TC 42 9.75044 86.0476 2 4 281
1888347N10087 1888 66 NI BB NOT_NAMED 1888-12-12 12:00:00 TS 9.78767 85.7771 main 503 483 _________OP___ -1 9.80000 85.7000 TC 45 9.77533 85.8541 2 3 284
1888347N10087 1888 66 NI BB NOT_NAMED 1888-12-12 15:00:00 TS 9.82874 85.6250 main 483 473 _________PO___ -1 9.85747 85.5500 TC 45 9.80000 85.7000 3 3 285
1888347N10087 1888 66 NI BB NOT_NAMED 1888-12-12 18:00:00 TS 9.86226 85.4934 main 478 468 _________OP___ -1 9.90000 85.4000 TC 45 9.82453 85.5868 3 3 280
1888347N10087 1888 66 NI BB NOT_NAMED 1888-12-12 21:00:00 TS 9.87451 85.3686 main 468 449 _________PP___ -1 9.89982 85.2674 TC 45 9.84921 85.4698 3 3 274
1888347N10087 1888 66 NI BB NOT_NAMED 1888-12-13 00:00:00 TS 9.88716 85.1465 main 439 409 _________OP___ -1 9.90000 85.0000 TC 45 9.87432 85.2930 3 6 275
1888347N10087 1888 66 NI BB NOT_NAMED 1888-12-13 03:00:00 TS 9.92507 84.7300 main 399 356 _________PO___ -1 9.95014 84.4601 TC 45 9.90000 85.0000 3 10 274
1888347N10087 1888 66 NI BB NOT_NAMED 1888-12-13 06:00:00 TS 9.96274 84.1590 main 356 300 _________OP___ -1 10.0000 83.8000 TC 45 9.92549 84.5181 3 12 273
1888347N10087 1888 66 NI BB NOT_NAMED 1888-12-13 09:00:00 TS 9.97903 83.5599 main 300 245 _________PP___ -1 10.0074 83.2000 TC 45 9.95067 83.9199 3 12 271
1888347N10087 1888 66 NI BB NOT_NAMED 1888-12-13 12:00:00 TS 9.98771 82.9309 main 236 182 _________OP___ -1 10.0000 82.6000 TC 45 9.97542 83.2618 3 12 271
1888347N10087 1888 66 NI BB NOT_NAMED 1888-12-13 15:00:00 TS 9.99622 82.2962 main 182 126 _________PO___ -1 9.99243 81.9925 TC 45 10.0000 82.6000 3 12 271
1888347N10087 1888 66 NI BB NOT_NAMED 1888-12-13 18:00:00 TS 10.0126 81.6805 main 126 85 _________OP___ -1 10.0000 81.4000 TC 45 10.0252 81.9611 3 12 273
1888347N10087 1888 66 NI BB NOT_NAMED 1888-12-13 21:00:00 TS 10.0502 81.0676 main 94 55 _________PP___ -1 10.0500 80.7976 TC 45 10.0504 81.3376 3 11 274
1888347N10087 1888 66 NI BB NOT_NAMED 1888-12-14 00:00:00 TS 10.0876 80.5352 main 49 39 _________OP___ -1 10.1000 80.3000 TC 45 10.0753 80.7704 3 9 273
1888347N10087 1888 66 NI BB NOT_NAMED 1888-12-14 03:00:00 TS 10.0999 80.1487 main 31 22 _________PO___ -1 10.0999 79.9975 TC 41 10.1000 80.3000 3 6 272
1888347N10087 1888 66 NI BB NOT_NAMED 1888-12-14 06:00:00 TS 10.1122 79.8831 main 22 22 _________OP___ -1 10.1000 79.8000 TC 37 10.1244 79.9663 3 5 276
1888347N10087 1888 66 NI BB NOT_NAMED 1888-12-14 09:00:00 TS 10.1496 79.6613 main 24 15 _________PP___ -1 10.1500 79.5925 TC 33 10.1493 79.7300 3 4 281
1888347N10087 1888 66 NI BB NOT_NAMED 1888-12-14 12:00:00 TS 10.1873 79.4769 main 22 10 _________OP___ -1 10.2000 79.4000 TC 30 10.1746 79.5538 3 4 278
1888347N10087 1888 66 NI BB NOT_NAMED 1888-12-14 15:00:00 TS 10.2000 79.2962 main 10 0 _________PO___ -1 10.2000 79.1925 TC 30 10.2000 79.4000 1 3 275
1888347N10087 1888 66 NI BB NOT_NAMED 1888-12-14 18:00:00 TS 10.2144 79.1361 main 0 0 _________OP___ -1 10.2000 79.0000 TC 30 10.2253 79.2381 1 3 278
1888347N10087 1888 66 NI BB NOT_NAMED 1888-12-14 21:00:00 TS 10.2452 78.9750 main 0 0 _________PP___ -1 10.2375 78.8400 TC 30 10.2503 79.0650 1 3 283
1888347N10087 1888 66 NI BB NOT_NAMED 1888-12-15 00:00:00 TS 10.2835 78.8229 main 0 0 _________OP___ -1 10.3000 78.7000 TC 30 10.2752 78.8844 1 3 281
1888347N10087 1888 66 NI BB NOT_NAMED 1888-12-15 03:00:00 NR 10.3000 78.7000 main 0 __________O___ -1 TC 10.3000 78.7000 1 2 278

IBTrACS Databaseについて

本データベースは、米国NOAAが公開する1842年以降の世界の熱帯低気圧のベストトラックデータアーカイブInternational Best Track Archive for Climate Stewardship (IBTrACS)を、ウェブで閲覧しやすい形式に変換したものです。

最終更新日:2021-12-08